Airfield :
LOGIN :

Register | Disclaimer

   EN    FR    IT 

 










Legend :    VFR   Marginal VFR   IFR   Intensive IFR   Very Intensive IFR
Visi :
Ceiling :
>= 8 km
>= 3000ft
5 to 8 km
1000 to 3000 ft
1500m to 5 km
500 to 1000 ft
800 to 1500m
200 to 500 ft
< 800m
< 200 ft
Symbols :   Thunderstorms  Fog  Heavy snow  Heavy precipitations  Wind > 20 kt
SIGMETs :     Misc.  Thunderstorms  Icing  Turbulence  Mountain Waves  Volcanic Ashes







- Airport Elevation : 392 ft
- IATA code : CDG
- Download approach charts


LFPG - Paris-Aeroport Charles De Gaulle

CURRENT METAR :
  • 161000Z 16004KT 090V220 7000 NSC 08/03 Q1027 NOSIG

EXPIRED METARs :
  • 160930Z 17003KT 120V210 7000 NSC 07/03 Q1027 NOSIG
  • 160900Z 18004KT 6000 NSC 06/03 Q1027 NOSIG
  • 160830Z 17006KT 6000 NSC 05/03 Q1027 NOSIG
  • 160800Z 16005KT 6000 NSC 04/03 Q1027 NOSIG
  • 160730Z 14005KT 6000 NSC 03/02 Q1027 NOSIG
  • 160700Z 13004KT 100V170 4000 BR NSC 02/01 Q1026 NOSIG

TAF TAF LFPG
Valid from the 16 at 06:00 until the 17 at 12:00 UTC


160500Z 1606/1712 14005KT 3000 BR NSC TX14/1615Z TNM00/1607Z
TEMPO 1606/1609 1200 BR
PROB30
TEMPO 1607/1609 0600 FG BKN001
BECMG 1609/1611 CAVOK
PROB40
TEMPO 1703/1706 3000 BR
ATIS : +33 1 48 62 10 92
No reported NOTAMs for that airfield.



MET'MAP, your aeronautical weather chart ! - Copyright ORBIFLY December 2007 - Disclaimer

ORBIFLY MET'MAP TEAM :

Programming & Development : Alexandra Zaïnal
Concept & Development : Baudouin d'Aumeries
Co-Development & Prog : Marc-Olivier Méhu
Technical & hardware support : Manuel Goepfert

Contact : metmap@orbifly.com




SOURCES & CREDITS :

   NOAA